Powell, Texas
Current Conditions -  °F | °C
As of 6:53 AM on Monday 22 Dec 2014 (Local Time) from KCRS Reporting Station
Overcast Overcast  
Wind Chill: 15°   Ceiling: 1800
Heat Index: 15°   Visibility: 10mi
Dew Point: 11°   Wind: 18mph
Humidity: 78%   Direction: 200°SSW
Pressure: 29.66"   Gusts: 30mph
Location:  32.12°N, 96.32°W
Report Text: KCRS 221253Z AUTO 20016G26KT 10SM OVC018 15/11 A2966 RMK AO2 PK WND 20028/1224 SLP043 T01500111
Loading
Personal Weather Stations






























Interactive Weather Map New forecast layout! Learn more

10-Day Weather Forecast

Advertisements
Track Severe Weather on mobile